Time;durP1;ratioP1;P1;durP2;ratioP2;P2;SDS_P1;SDS_P2;PMS_P1;PMS_P2;Temp;Humidity;BMP_temperature;BMP_pressure;BME280_temperature;BME280_humidity;BME280_pressure;Samples;Min_cycle;Max_cycle;Signal;HPM_P1;HPM_P2
2021/01/24 12:11:12;;;;;;;0.73;0.30;;;18.70;40.10;;;;;;5181728;23;20097;-48
2021/01/24 12:23:59;;;;;;;0.25;0.22;;;18.90;40.70;;;;;;5157258;23;20360;-49
2021/01/24 12:26:25;;;;;;;3.95;0.50;;;18.90;40.70;;;;;;4977027;28;20043;-49
2021/01/24 12:28:51;;;;;;;2.33;0.47;;;19.00;40.90;;;;;;4977801;28;20098;-51
2021/01/24 12:31:16;;;;;;;0.82;0.50;;;19.00;40.90;;;;;;4978513;28;20389;-48
2021/01/24 12:33:42;;;;;;;3.83;0.70;;;19.00;40.90;;;;;;4978175;28;20365;-50
2021/01/24 12:36:08;;;;;;;1.10;0.47;;;19.10;41.10;;;;;;4978422;28;20365;-45
2021/01/24 12:38:33;;;;;;;3.47;0.47;;;19.10;41.80;;;;;;4978413;28;20101;-45
2021/01/24 12:40:59;;;;;;;3.08;0.47;;;19.10;41.10;;;;;;4977883;28;20054;-43
2021/01/24 12:43:24;;;;;;;2.25;0.47;;;19.10;41.10;;;;;;4978071;28;20085;-43
2021/01/24 12:45:50;;;;;;;0.93;0.40;;;19.10;41.10;;;;;;4978163;28;20039;-45
2021/01/24 12:48:15;;;;;;;10.68;0.60;;;19.10;41.20;;;;;;4960651;28;20035;-47
2021/01/24 12:50:41;;;;;;;4.95;0.60;;;19.10;41.20;;;;;;4977873;28;20110;-46
2021/01/24 12:53:06;;;;;;;0.90;0.50;;;19.10;41.50;;;;;;4978144;28;20042;-46
2021/01/24 12:55:31;;;;;;;2.17;0.95;;;19.10;41.50;;;;;;4976989;28;20102;-49
2021/01/24 12:57:58;;;;;;;7.00;0.50;;;19.10;41.50;;;;;;4977756;28;20034;-45
2021/01/24 13:00:23;;;;;;;1.77;0.60;;;19.00;41.60;;;;;;4977412;28;20442;-46
2021/01/24 13:02:49;;;;;;;0.75;0.40;;;19.10;41.60;;;;;;4976987;28;20031;-50
2021/01/24 13:05:15;;;;;;;1.10;0.50;;;19.00;41.60;;;;;;4977324;28;20046;-46
2021/01/24 13:07:41;;;;;;;5.50;0.50;;;19.10;41.60;;;;;;4977485;28;20035;-47
2021/01/24 13:10:07;;;;;;;3.42;0.80;;;19.00;41.70;;;;;;4977505;28;20044;-46
2021/01/24 13:12:33;;;;;;;3.45;0.60;;;19.00;41.70;;;;;;4976542;28;20061;-47
2021/01/24 13:14:58;;;;;;;4.00;0.80;;;19.10;41.80;;;;;;4977150;28;20441;-43
2021/01/24 13:17:24;;;;;;;0.98;0.60;;;19.10;41.80;;;;;;4977294;28;20038;-45
2021/01/24 13:19:49;;;;;;;2.17;0.68;;;19.10;41.80;;;;;;4977681;28;20035;-46
2021/01/24 13:22:15;;;;;;;2.15;0.93;;;19.10;41.80;;;;;;4977377;28;20512;-47
2021/01/24 13:24:40;;;;;;;2.70;0.63;;;19.10;41.80;;;;;;4994840;28;20057;-44
2021/01/24 13:27:06;;;;;;;1.95;0.80;;;19.10;41.80;;;;;;4996076;28;20440;-46
2021/01/24 13:29:31;;;;;;;2.25;0.50;;;19.10;41.80;;;;;;4995961;28;20042;-49
2021/01/24 13:31:57;;;;;;;1.50;0.60;;;19.10;41.80;;;;;;4995995;28;20550;-42
2021/01/24 13:34:22;;;;;;;1.10;0.63;;;19.10;41.80;;;;;;4996040;28;20073;-44
2021/01/24 13:36:48;;;;;;;1.20;0.68;;;19.10;41.80;;;;;;4996105;28;20458;-44
2021/01/24 13:39:13;;;;;;;1.85;0.82;;;19.10;41.70;;;;;;4995096;28;20034;-43
2021/01/24 13:41:39;;;;;;;2.90;0.73;;;19.20;41.70;;;;;;4995845;28;20038;-43
2021/01/24 13:44:05;;;;;;;4.28;0.93;;;19.20;41.70;;;;;;4996481;28;20038;-47
2021/01/24 13:46:30;;;;;;;1.90;0.90;;;19.10;41.60;;;;;;4996360;28;20330;-49
2021/01/24 13:48:56;;;;;;;3.45;0.70;;;19.20;41.70;;;;;;4995990;28;20034;-47
2021/01/24 13:51:21;;;;;;;3.28;0.80;;;19.20;41.60;;;;;;4995970;28;20042;-42
2021/01/24 13:53:47;;;;;;;3.78;1.23;;;19.10;41.60;;;;;;4996519;28;20046;-47
2021/01/24 13:56:13;;;;;;;2.53;1.10;;;19.10;41.60;;;;;;4996006;28;20045;-47
2021/01/24 13:58:38;;;;;;;0.95;0.50;;;19.20;41.60;;;;;;4996161;28;20148;-47
2021/01/24 14:01:04;;;;;;;2.42;0.88;;;19.20;41.60;;;;;;4995980;28;20117;-44
2021/01/24 14:03:29;;;;;;;6.13;0.60;;;19.20;41.60;;;;;;4995705;28;20479;-45
2021/01/24 14:05:55;;;;;;;4.57;0.70;;;19.20;42.30;;;;;;4995693;28;20043;-47
2021/01/24 14:08:20;;;;;;;2.92;0.50;;;19.20;41.60;;;;;;4996235;28;20035;-44
2021/01/24 14:10:46;;;;;;;2.08;0.85;;;19.20;41.60;;;;;;4995960;28;20034;-46
2021/01/24 14:13:11;;;;;;;2.33;0.65;;;19.20;41.70;;;;;;4995773;28;20456;-45
2021/01/24 14:15:37;;;;;;;2.38;0.50;;;19.20;41.80;;;;;;4995732;28;20115;-49
2021/01/24 14:18:03;;;;;;;2.85;0.68;;;19.30;41.80;;;;;;4995470;28;20042;-49
2021/01/24 14:20:29;;;;;;;2.90;0.60;;;19.20;41.80;;;;;;4995367;28;20046;-43
2021/01/24 14:22:54;;;;;;;9.65;1.00;;;19.20;41.80;;;;;;4995665;28;20046;-47
2021/01/24 14:25:20;;;;;;;2.17;0.65;;;19.30;41.90;;;;;;4995297;28;20368;-47
2021/01/24 14:27:47;;;;;;;3.38;1.08;;;19.20;41.90;;;;;;4995620;28;20046;-45
2021/01/24 14:30:14;;;;;;;3.80;1.17;;;19.30;41.90;;;;;;4995912;28;20026;-43
2021/01/24 14:32:39;;;;;;;3.85;0.75;;;19.30;42.00;;;;;;4995426;28;20049;-46
2021/01/24 14:35:05;;;;;;;5.53;1.02;;;19.30;42.00;;;;;;4995587;28;20046;-46
2021/01/24 14:37:31;;;;;;;2.20;0.80;;;19.30;42.00;;;;;;4995310;28;20423;-48
2021/01/24 14:39:56;;;;;;;1.75;0.82;;;19.30;42.00;;;;;;4995211;28;20034;-44
2021/01/24 14:42:22;;;;;;;5.70;0.77;;;19.30;42.00;;;;;;4995458;28;20037;-49
2021/01/24 14:44:48;;;;;;;8.65;1.02;;;19.30;42.10;;;;;;4995452;28;20046;-45
2021/01/24 14:47:13;;;;;;;5.57;1.25;;;19.30;42.10;;;;;;4995023;28;20035;-44
2021/01/24 14:49:39;;;;;;;2.90;0.80;;;19.40;42.20;;;;;;4995252;28;20371;-45
2021/01/24 14:52:05;;;;;;;6.20;0.80;;;19.30;42.10;;;;;;4994884;28;20085;-43
2021/01/24 14:54:30;;;;;;;2.40;1.10;;;19.40;42.20;;;;;;4993955;28;20100;-47
2021/01/24 14:56:56;;;;;;;3.58;1.00;;;19.40;42.10;;;;;;4994794;28;20046;-47
2021/01/24 14:59:21;;;;;;;1.70;0.77;;;19.40;42.10;;;;;;4995336;28;20042;-46
2021/01/24 15:01:47;;;;;;;3.65;0.60;;;19.40;42.10;;;;;;4994842;28;20038;-47
2021/01/24 15:04:12;;;;;;;7.05;0.90;;;19.40;42.10;;;;;;4994859;28;20369;-44
2021/01/24 15:06:38;;;;;;;1.88;0.73;;;19.40;42.00;;;;;;4995542;28;20042;-46
2021/01/24 15:09:04;;;;;;;2.30;0.85;;;19.40;42.00;;;;;;4995067;28;20045;-48
2021/01/24 15:11:30;;;;;;;2.53;0.80;;;19.40;41.90;;;;;;4995162;28;20039;-45
2021/01/24 15:13:55;;;;;;;3.28;1.20;;;19.40;41.90;;;;;;4994705;28;20050;-44
2021/01/24 15:16:21;;;;;;;4.00;0.95;;;19.40;41.80;;;;;;4994929;28;20117;-48
2021/01/24 15:18:46;;;;;;;3.45;0.88;;;19.40;41.70;;;;;;4994430;28;20045;-44
2021/01/24 15:21:12;;;;;;;2.42;0.80;;;19.40;41.70;;;;;;4994249;28;20449;-44
2021/01/24 15:23:38;;;;;;;2.42;0.90;;;19.40;41.60;;;;;;4995031;28;20050;-45
2021/01/24 15:26:04;;;;;;;3.22;0.70;;;19.40;41.60;;;;;;4995205;28;20042;-47
2021/01/24 15:28:30;;;;;;;1.77;1.02;;;19.40;41.50;;;;;;4994916;28;20035;-47
2021/01/24 15:30:56;;;;;;;3.60;0.70;;;19.40;41.50;;;;;;4994989;28;20108;-48
2021/01/24 15:33:22;;;;;;;1.70;0.70;;;19.40;41.40;;;;;;4994383;28;20500;-46
2021/01/24 15:35:47;;;;;;;1.13;0.75;;;19.40;41.40;;;;;;4995355;28;20050;-45
2021/01/24 15:38:13;;;;;;;2.15;0.98;;;19.50;41.40;;;;;;4998233;28;20034;-45
2021/01/24 15:40:39;;;;;;;1.13;0.70;;;19.40;41.30;;;;;;4998735;28;20100;-44
2021/01/24 15:43:05;;;;;;;2.33;0.90;;;19.40;41.30;;;;;;4998497;28;20038;-48
2021/01/24 15:45:30;;;;;;;1.88;0.98;;;19.40;41.30;;;;;;4998404;28;20038;-46
2021/01/24 15:47:56;;;;;;;1.33;0.80;;;19.40;40.60;;;;;;4998472;28;20434;-48
2021/01/24 15:50:23;;;;;;;3.92;0.85;;;19.40;40.70;;;;;;4998396;28;20031;-46
2021/01/24 15:52:49;;;;;;;3.28;0.95;;;19.50;40.80;;;;;;4998244;28;20045;-47
2021/01/24 15:55:15;;;;;;;2.05;0.90;;;19.50;40.70;;;;;;4998173;28;20042;-49
2021/01/24 15:57:41;;;;;;;5.22;1.23;;;19.50;40.70;;;;;;4998429;28;20031;-46
2021/01/24 16:00:07;;;;;;;3.15;1.33;;;19.50;40.70;;;;;;4997937;28;20042;-46
2021/01/24 16:02:33;;;;;;;1.50;1.05;;;19.50;40.70;;;;;;4998287;28;20031;-45
2021/01/24 16:04:58;;;;;;;2.15;0.98;;;19.50;40.70;;;;;;4998421;28;20042;-46
2021/01/24 16:07:24;;;;;;;1.33;0.80;;;19.50;40.70;;;;;;4997804;28;20121;-43
2021/01/24 16:09:49;;;;;;;1.65;0.90;;;19.50;40.70;;;;;;4997787;28;20089;-47
2021/01/24 16:12:15;;;;;;;1.90;1.15;;;19.50;40.70;;;;;;4998262;28;20030;-45
2021/01/24 16:14:40;;;;;;;2.50;0.98;;;19.50;40.70;;;;;;4997852;28;20429;-49
2021/01/24 16:17:06;;;;;;;1.92;0.90;;;19.50;40.70;;;;;;4997786;28;20081;-49
2021/01/24 16:19:31;;;;;;;2.30;1.10;;;19.50;40.70;;;;;;4998244;28;20115;-47
2021/01/24 16:21:57;;;;;;;4.45;1.17;;;19.50;40.60;;;;;;4998007;28;20035;-56
2021/01/24 16:24:22;;;;;;;2.95;1.33;;;19.50;40.50;;;;;;4997862;28;20059;-46
2021/01/24 16:26:48;;;;;;;3.38;1.30;;;19.50;39.80;;;;;;4997711;28;20050;-46
2021/01/24 16:29:14;;;;;;;2.63;1.20;;;19.50;39.80;;;;;;4997591;28;20066;-48
2021/01/24 16:31:39;;;;;;;2.45;1.27;;;19.50;39.80;;;;;;4997457;28;20034;-48
2021/01/24 16:34:05;;;;;;;1.77;1.05;;;19.50;39.90;;;;;;4997305;28;20042;-45
2021/01/24 16:36:31;;;;;;;4.38;1.27;;;19.50;39.90;;;;;;4997581;28;20034;-53
2021/01/24 16:38:56;;;;;;;2.55;1.60;;;19.50;40.00;;;;;;4997572;28;20045;-45
2021/01/24 16:41:22;;;;;;;7.90;1.42;;;19.50;39.80;;;;;;4997386;28;20467;-47
2021/01/24 16:43:47;;;;;;;7.13;1.58;;;19.50;40.00;;;;;;4997191;28;20041;-43
2021/01/24 16:46:13;;;;;;;11.32;2.60;;;19.50;40.20;;;;;;4996276;28;20461;-42
2021/01/24 16:48:40;;;;;;;8.85;3.13;;;19.50;40.20;;;;;;4997348;28;20039;-47
2021/01/24 16:51:06;;;;;;;11.88;3.83;;;19.50;40.30;;;;;;4997034;28;20084;-45
2021/01/24 16:53:32;;;;;;;14.98;5.03;;;19.50;40.20;;;;;;4997578;28;20117;-47
2021/01/24 16:55:57;;;;;;;14.05;4.40;;;19.50;40.20;;;;;;4997144;28;20050;-45
2021/01/24 16:58:23;;;;;;;10.85;4.45;;;19.60;40.30;;;;;;4997357;28;20038;-42
2021/01/24 17:00:49;;;;;;;9.60;4.90;;;19.60;40.20;;;;;;4996874;28;20049;-46
2021/01/24 17:03:15;;;;;;;9.90;4.22;;;19.60;40.20;;;;;;4997612;28;20445;-47
2021/01/24 17:05:40;;;;;;;12.63;5.75;;;19.60;40.10;;;;;;4996989;28;20030;-46
2021/01/24 17:08:06;;;;;;;18.85;9.07;;;19.60;40.10;;;;;;4997248;28;20027;-47
2021/01/24 17:10:31;;;;;;;21.98;9.15;;;19.60;40.10;;;;;;4996649;28;20460;-46
2021/01/24 17:12:57;;;;;;;16.33;8.10;;;19.60;40.00;;;;;;4997296;28;20129;-46
2021/01/24 17:15:22;;;;;;;14.57;7.32;;;19.60;39.90;;;;;;4996541;28;20469;-44
2021/01/24 17:17:48;;;;;;;16.27;7.03;;;19.70;40.00;;;;;;4996770;28;20365;-45
2021/01/24 17:20:14;;;;;;;13.73;6.18;;;19.70;39.90;;;;;;4996331;28;20093;-46
2021/01/24 17:22:40;;;;;;;16.80;6.25;;;19.70;40.00;;;;;;4996893;28;20414;-45
2021/01/24 17:25:06;;;;;;;13.00;6.07;;;19.80;40.10;;;;;;4996844;28;20078;-45
2021/01/24 17:27:31;;;;;;;11.13;5.57;;;19.80;40.20;;;;;;4996383;28;20053;-44
2021/01/24 17:29:57;;;;;;;17.17;5.50;;;19.90;40.20;;;;;;4996063;28;20267;-44
2021/01/24 17:32:23;;;;;;;11.95;5.43;;;19.90;40.10;;;;;;4996645;28;20030;-47
2021/01/24 17:34:48;;;;;;;8.23;4.60;;;19.90;40.10;;;;;;4996619;28;20073;-47
2021/01/24 17:37:14;;;;;;;10.60;4.50;;;20.10;40.20;;;;;;4996608;28;20034;-47
2021/01/24 17:39:40;;;;;;;9.00;4.82;;;20.10;40.20;;;;;;4996072;28;20031;-46
2021/01/24 17:42:06;;;;;;;16.55;4.90;;;20.10;40.20;;;;;;4996085;28;20504;-47
2021/01/24 17:44:32;;;;;;;8.40;4.38;;;20.20;40.20;;;;;;4996072;28;20030;-44
2021/01/24 17:46:57;;;;;;;10.10;4.50;;;20.20;40.20;;;;;;4996204;28;20056;-47
2021/01/24 17:49:23;;;;;;;7.93;3.72;;;20.20;40.20;;;;;;4996385;28;20035;-49
2021/01/24 17:51:48;;;;;;;7.65;4.03;;;20.30;40.20;;;;;;4996271;28;20353;-51
2021/01/24 17:54:13;;;;;;;5.88;3.33;;;20.30;40.20;;;;;;4996284;28;20049;-45
2021/01/24 17:56:39;;;;;;;5.97;3.60;;;20.30;40.20;;;;;;4996231;28;20429;-45
2021/01/24 17:59:05;;;;;;;7.07;3.08;;;20.30;40.20;;;;;;4995287;28;20038;-44
2021/01/24 18:01:30;;;;;;;6.65;3.42;;;20.30;40.10;;;;;;4995476;28;20113;-50
2021/01/24 18:03:56;;;;;;;5.10;3.03;;;20.30;40.10;;;;;;4995961;28;20038;-46
2021/01/24 18:06:21;;;;;;;5.30;2.75;;;20.40;40.20;;;;;;4995902;28;20036;-51
2021/01/24 18:08:47;;;;;;;4.68;2.70;;;20.40;40.10;;;;;;4996227;28;20113;-46
2021/01/24 18:11:12;;;;;;;5.70;2.88;;;20.40;40.10;;;;;;4995526;28;20513;-48
2021/01/24 18:13:38;;;;;;;3.53;2.60;;;20.40;40.00;;;;;;4995750;28;20092;-46
2021/01/24 18:16:04;;;;;;;3.75;2.30;;;20.50;40.00;;;;;;4995260;28;20030;-46
2021/01/24 18:18:44;;;;;;;7.65;2.95;;;20.50;40.00;;;;;;4995595;28;20037;-52
2021/01/24 18:21:10;;;;;;;5.47;3.40;;;20.50;39.70;;;;;;4995954;28;20046;-48
2021/01/24 18:23:38;;;;;;;9.05;3.55;;;20.40;39.60;;;;;;4994616;28;20440;-44
2021/01/24 18:26:05;;;;;;;4.35;3.20;;;20.40;40.20;;;;;;4992081;28;20034;-44
2021/01/24 18:28:30;;;;;;;6.97;3.20;;;20.50;39.60;;;;;;4995109;28;20034;-46
2021/01/24 18:30:56;;;;;;;7.93;3.22;;;20.40;39.40;;;;;;4995612;28;20522;-45
2021/01/24 18:33:21;;;;;;;7.25;3.22;;;20.40;39.30;;;;;;4994632;28;20034;-48
2021/01/24 18:35:47;;;;;;;5.60;3.05;;;20.50;39.30;;;;;;4995630;28;20464;-45
2021/01/24 18:38:14;;;;;;;5.20;3.30;;;20.50;39.30;;;;;;4995136;28;20128;-48
2021/01/24 18:40:39;;;;;;;4.68;3.13;;;20.50;39.20;;;;;;4995415;28;20153;-47
2021/01/24 18:43:05;;;;;;;4.32;2.97;;;20.50;39.10;;;;;;4995380;28;20034;-47
2021/01/24 18:45:31;;;;;;;5.82;3.35;;;20.50;38.90;;;;;;4994924;28;20066;-47
2021/01/24 18:47:57;;;;;;;5.85;3.63;;;20.50;38.90;;;;;;4995316;28;20034;-48
2021/01/24 18:50:23;;;;;;;5.00;3.60;;;20.50;38.80;;;;;;4995393;28;20349;-45
2021/01/24 18:52:49;;;;;;;3.25;2.80;;;20.50;38.70;;;;;;4994972;28;20030;-47
2021/01/24 18:55:14;;;;;;;7.80;3.05;;;20.50;38.60;;;;;;4978131;28;20042;-45
2021/01/24 18:57:40;;;;;;;4.50;3.42;;;20.50;38.40;;;;;;4994913;28;20037;-45
2021/01/24 19:00:07;;;;;;;6.20;3.53;;;20.50;39.00;;;;;;4995652;28;20077;-47
2021/01/24 19:02:32;;;;;;;5.05;3.78;;;20.50;38.30;;;;;;4995213;28;20106;-50
2021/01/24 19:04:58;;;;;;;4.90;3.78;;;20.50;38.10;;;;;;4995095;28;20046;-47
2021/01/24 19:07:23;;;;;;;5.90;4.05;;;20.50;38.10;;;;;;4995157;28;20069;-44
2021/01/24 19:09:49;;;;;;;5.75;3.78;;;20.50;38.00;;;;;;4995018;28;20030;-45
2021/01/24 19:12:14;;;;;;;7.80;4.03;;;20.50;38.00;;;;;;4997902;28;20034;-45
2021/01/24 19:14:40;;;;;;;5.25;3.78;;;20.50;37.90;;;;;;4999189;28;20058;-47
2021/01/24 19:17:05;;;;;;;6.22;3.83;;;20.50;37.80;;;;;;4999291;28;20361;-48
2021/01/24 19:19:31;;;;;;;5.55;3.58;;;20.50;37.80;;;;;;4998890;28;20053;-46
2021/01/24 19:21:56;;;;;;;7.00;3.78;;;20.50;37.70;;;;;;4998727;28;20081;-50
2021/01/24 19:24:22;;;;;;;5.53;4.13;;;20.50;37.60;;;;;;4998780;28;20046;-46
2021/01/24 19:26:47;;;;;;;6.38;3.78;;;20.50;37.60;;;;;;4998791;28;20042;-45
2021/01/24 19:29:13;;;;;;;5.70;3.85;;;20.50;37.60;;;;;;4981316;28;20039;-48
2021/01/24 19:31:38;;;;;;;6.78;3.58;;;20.50;37.70;;;;;;4998853;28;20042;-45
2021/01/24 19:34:06;;;;;;;5.07;3.03;;;20.50;37.90;;;;;;4998895;28;20060;-48
2021/01/24 19:36:32;;;;;;;8.55;3.78;;;20.40;37.90;;;;;;4998637;28;20037;-48
2021/01/24 19:38:58;;;;;;;4.18;3.10;;;20.50;37.80;;;;;;4998254;28;20057;-45
2021/01/24 19:41:24;;;;;;;5.47;4.30;;;20.50;37.90;;;;;;4997963;28;20026;-50
2021/01/24 19:43:49;;;;;;;6.50;4.00;;;20.50;37.80;;;;;;4998492;28;20053;-46
2021/01/24 19:46:16;;;;;;;5.93;3.67;;;20.50;38.00;;;;;;4998289;28;20090;-49
2021/01/24 19:48:42;;;;;;;7.07;4.20;;;20.50;38.00;;;;;;4998363;28;20034;-45
2021/01/24 19:51:07;;;;;;;7.55;4.88;;;20.50;37.80;;;;;;4998316;28;20046;-46
2021/01/24 19:53:33;;;;;;;9.52;4.28;;;20.50;37.80;;;;;;4998515;28;20037;-49
2021/01/24 19:55:58;;;;;;;5.32;3.72;;;20.50;37.70;;;;;;4998027;28;20449;-55
2021/01/24 19:58:24;;;;;;;5.70;3.65;;;20.50;37.70;;;;;;4997809;28;20045;-52
2021/01/24 20:00:49;;;;;;;5.00;3.88;;;20.50;37.70;;;;;;4998213;28;20445;-51
2021/01/24 20:03:15;;;;;;;5.90;4.00;;;20.60;37.80;;;;;;4998163;28;20034;-53
2021/01/24 20:05:40;;;;;;;6.13;3.38;;;20.60;37.70;;;;;;4998433;28;20045;-45
2021/01/24 20:08:06;;;;;;;6.25;3.65;;;20.60;37.60;;;;;;4998041;28;20040;-46
2021/01/24 20:10:31;;;;;;;5.97;3.67;;;20.60;37.60;;;;;;4997813;28;20034;-48
2021/01/24 20:12:57;;;;;;;4.50;3.10;;;20.60;37.60;;;;;;4997828;28;20356;-46
2021/01/24 20:15:23;;;;;;;6.20;3.20;;;20.60;37.60;;;;;;4997763;28;20125;-46
2021/01/24 20:17:49;;;;;;;4.18;3.28;;;20.60;37.50;;;;;;4997940;28;20037;-48
2021/01/24 20:20:15;;;;;;;4.70;3.05;;;20.70;37.50;;;;;;4998013;28;20035;-47
2021/01/24 20:22:41;;;;;;;4.82;3.78;;;20.60;37.40;;;;;;4997033;28;20034;-45
2021/01/24 20:25:07;;;;;;;3.58;2.80;;;20.70;37.40;;;;;;4997906;28;20065;-46
2021/01/24 20:27:32;;;;;;;6.55;3.40;;;20.70;37.50;;;;;;4997699;28;20043;-48
2021/01/24 20:29:58;;;;;;;4.95;3.17;;;20.70;37.40;;;;;;4997638;28;20049;-45
2021/01/24 20:32:23;;;;;;;5.25;3.10;;;20.70;37.30;;;;;;4997539;28;20065;-46
2021/01/24 20:34:49;;;;;;;4.28;3.10;;;20.70;37.20;;;;;;4997461;28;20128;-46
2021/01/24 20:37:14;;;;;;;4.45;2.95;;;20.70;37.10;;;;;;4997307;28;20372;-47
2021/01/24 20:39:40;;;;;;;3.47;2.80;;;20.70;37.10;;;;;;4997539;28;20053;-50
2021/01/24 20:42:05;;;;;;;3.30;2.60;;;20.70;37.00;;;;;;4997120;28;20034;-45
2021/01/24 20:44:31;;;;;;;4.45;2.70;;;20.70;37.00;;;;;;4997616;28;20488;-48
2021/01/24 20:46:57;;;;;;;3.65;2.78;;;20.70;37.00;;;;;;4997344;28;20122;-46
2021/01/24 20:49:22;;;;;;;3.70;2.97;;;20.80;36.90;;;;;;4997604;28;20058;-47
2021/01/24 20:51:48;;;;;;;5.50;2.78;;;20.70;36.80;;;;;;4997036;28;20065;-46
2021/01/24 20:54:14;;;;;;;4.25;2.97;;;20.70;36.70;;;;;;4996663;28;20089;-45
2021/01/24 20:56:41;;;;;;;4.15;3.03;;;20.80;36.80;;;;;;4997192;28;20406;-48
2021/01/24 20:59:06;;;;;;;3.83;2.90;;;20.80;36.70;;;;;;4997177;28;20475;-47
2021/01/24 21:01:32;;;;;;;2.90;2.60;;;20.80;36.70;;;;;;4997061;28;20034;-47
2021/01/24 21:03:57;;;;;;;3.47;2.50;;;20.80;36.60;;;;;;4997346;28;20365;-44
2021/01/24 21:06:23;;;;;;;3.47;2.53;;;20.80;36.60;;;;;;4996793;28;20038;-48
2021/01/24 21:08:48;;;;;;;7.82;3.10;;;20.80;36.60;;;;;;4996546;28;20114;-49
2021/01/24 21:11:14;;;;;;;5.70;2.78;;;20.80;36.70;;;;;;4996877;28;20042;-48
2021/01/24 21:13:39;;;;;;;5.00;2.80;;;20.80;36.70;;;;;;4996733;28;20034;-44
2021/01/24 21:16:05;;;;;;;4.45;2.42;;;20.80;36.80;;;;;;4996134;28;20118;-44
2021/01/24 21:18:31;;;;;;;3.83;2.60;;;20.80;36.70;;;;;;4996773;28;20034;-45
2021/01/24 21:20:57;;;;;;;7.07;2.60;;;20.80;36.70;;;;;;4996749;28;20034;-50
2021/01/24 21:23:23;;;;;;;3.88;2.67;;;20.80;36.70;;;;;;4996559;28;20061;-51
2021/01/24 21:25:49;;;;;;;3.83;2.67;;;20.80;36.60;;;;;;4996483;28;20034;-48
2021/01/24 21:28:15;;;;;;;3.38;2.25;;;20.80;36.50;;;;;;4979759;28;20063;-49
2021/01/24 21:30:41;;;;;;;3.13;2.50;;;20.80;36.60;;;;;;4996639;28;20034;-47
2021/01/24 21:33:07;;;;;;;3.70;2.60;;;20.80;36.70;;;;;;4996094;28;20077;-43
2021/01/24 21:35:32;;;;;;;2.63;2.20;;;20.80;36.70;;;;;;4996189;28;20042;-50
2021/01/24 21:37:58;;;;;;;5.35;2.72;;;20.80;36.60;;;;;;4996674;28;20413;-47
2021/01/24 21:40:23;;;;;;;4.15;2.60;;;20.80;36.60;;;;;;4996180;28;20116;-48
2021/01/24 21:42:49;;;;;;;2.70;2.45;;;20.80;36.50;;;;;;4996563;28;20046;-46
2021/01/24 21:45:16;;;;;;;2.90;2.50;;;20.70;36.50;;;;;;4996426;28;20026;-47
2021/01/24 21:47:44;;;;;;;2.45;2.22;;;20.70;36.50;;;;;;4996338;28;20045;-46
2021/01/24 21:50:10;;;;;;;3.40;2.40;;;20.70;36.40;;;;;;4996322;28;20046;-47
2021/01/24 21:52:36;;;;;;;3.15;2.50;;;20.70;36.50;;;;;;4996441;28;20109;-47
2021/01/24 21:55:02;;;;;;;3.00;2.40;;;20.70;36.50;;;;;;4996147;28;20051;-47
2021/01/24 21:57:28;;;;;;;2.53;2.30;;;20.70;36.40;;;;;;4996152;28;20034;-47
2021/01/24 21:59:53;;;;;;;4.05;2.67;;;20.70;36.50;;;;;;4996136;28;20487;-45
2021/01/24 22:02:19;;;;;;;3.67;2.80;;;20.70;36.40;;;;;;4996262;28;20034;-45
2021/01/24 22:04:44;;;;;;;5.15;2.78;;;20.70;36.40;;;;;;4995419;28;20044;-49
2021/01/24 22:07:10;;;;;;;3.30;2.33;;;20.70;36.60;;;;;;4995378;28;20038;-50
2021/01/24 22:09:36;;;;;;;2.58;1.95;;;20.70;36.60;;;;;;4995794;28;20085;-45
2021/01/24 22:12:02;;;;;;;3.60;2.15;;;20.70;36.50;;;;;;4995637;28;20038;-46
2021/01/24 22:14:27;;;;;;;2.05;1.85;;;20.70;36.40;;;;;;4995315;28;20050;-46
2021/01/24 22:16:53;;;;;;;2.90;2.38;;;20.70;36.40;;;;;;4978827;28;20034;-44
2021/01/24 22:19:18;;;;;;;4.78;2.20;;;20.60;36.30;;;;;;4995627;28;20038;-46
2021/01/24 22:21:49;;;;;;;8.68;2.42;;;20.60;36.30;;;;;;4995669;28;20101;-47
2021/01/24 22:24:14;;;;;;;2.40;2.20;;;20.60;36.30;;;;;;4995638;28;20072;-45
2021/01/24 22:26:40;;;;;;;2.55;2.22;;;20.60;36.20;;;;;;4995235;28;20101;-45
2021/01/24 22:29:05;;;;;;;3.28;2.45;;;20.60;36.20;;;;;;4995424;28;20041;-44
2021/01/24 22:31:31;;;;;;;2.58;2.17;;;20.60;36.20;;;;;;4995167;28;20411;-46
2021/01/24 22:33:56;;;;;;;2.58;2.00;;;20.60;36.20;;;;;;4995387;28;20054;-47
2021/01/24 22:36:23;;;;;;;2.53;2.13;;;20.50;36.10;;;;;;4995258;28;20092;-50
2021/01/24 22:38:49;;;;;;;2.75;2.10;;;20.50;36.10;;;;;;4995258;28;20030;-48
2021/01/24 22:41:14;;;;;;;3.05;1.98;;;20.50;36.10;;;;;;4995078;28;20113;-46
2021/01/24 22:43:40;;;;;;;2.58;1.90;;;20.50;36.10;;;;;;4995004;28;20038;-46
2021/01/24 22:46:05;;;;;;;2.42;2.22;;;20.50;36.00;;;;;;4994865;28;20035;-45
2021/01/24 22:48:31;;;;;;;2.67;2.10;;;20.50;36.00;;;;;;4995322;28;20069;-46
2021/01/24 22:50:57;;;;;;;5.05;2.50;;;20.40;35.90;;;;;;4995143;28;20069;-46
2021/01/24 22:53:22;;;;;;;3.40;2.67;;;20.40;35.90;;;;;;4995513;28;20066;-48
2021/01/24 22:55:48;;;;;;;3.05;2.15;;;20.40;35.90;;;;;;4978332;28;20437;-46
2021/01/24 22:58:13;;;;;;;3.05;2.28;;;20.40;35.90;;;;;;4995291;28;20038;-46
2021/01/24 23:00:39;;;;;;;4.32;2.42;;;20.40;35.90;;;;;;4995477;28;20163;-45
2021/01/24 23:03:05;;;;;;;3.90;2.33;;;20.30;35.80;;;;;;4994689;28;20045;-44
2021/01/24 23:05:31;;;;;;;3.15;2.25;;;20.30;35.80;;;;;;4994849;28;20041;-44
2021/01/24 23:07:56;;;;;;;2.88;2.20;;;20.30;35.80;;;;;;4994807;28;20035;-44
2021/01/24 23:10:22;;;;;;;3.03;2.47;;;20.30;35.80;;;;;;4977855;28;20330;-43
2021/01/24 23:12:48;;;;;;;3.20;2.28;;;20.30;35.80;;;;;;4995067;28;20102;-46
2021/01/24 23:15:14;;;;;;;4.03;2.28;;;20.20;35.70;;;;;;4994729;28;20129;-48
2021/01/24 23:17:39;;;;;;;3.35;2.20;;;20.20;35.70;;;;;;4994708;28;20365;-50
2021/01/24 23:20:06;;;;;;;3.28;2.70;;;20.20;35.70;;;;;;4994470;28;20109;-48
2021/01/24 23:22:31;;;;;;;4.15;2.53;;;20.20;35.70;;;;;;4994383;28;20465;-46
2021/01/24 23:24:57;;;;;;;2.45;2.25;;;20.10;35.90;;;;;;4995380;28;20058;-46
2021/01/24 23:27:22;;;;;;;4.28;2.35;;;20.10;35.80;;;;;;4994708;28;20045;-44
2021/01/24 23:29:48;;;;;;;4.53;2.53;;;20.10;35.80;;;;;;4994134;28;20061;-50
2021/01/24 23:32:13;;;;;;;2.38;2.17;;;20.10;35.80;;;;;;4994865;28;20361;-48
2021/01/24 23:34:39;;;;;;;3.10;2.33;;;20.10;35.90;;;;;;4994713;28;20034;-49
2021/01/24 23:37:04;;;;;;;3.10;2.30;;;20.10;35.90;;;;;;4994670;28;20034;-47
2021/01/24 23:39:30;;;;;;;3.15;2.60;;;20.00;35.80;;;;;;4995107;28;20037;-47
2021/01/24 23:41:55;;;;;;;3.53;2.53;;;20.00;35.80;;;;;;4994726;28;20113;-48
2021/01/24 23:44:21;;;;;;;4.85;2.53;;;20.00;35.80;;;;;;4994953;28;20042;-45
2021/01/24 23:46:46;;;;;;;2.55;2.20;;;19.90;35.80;;;;;;4994911;28;20044;-47
2021/01/24 23:49:12;;;;;;;3.00;2.70;;;19.90;35.80;;;;;;4994608;28;20035;-47
2021/01/24 23:51:37;;;;;;;2.60;2.40;;;19.90;35.80;;;;;;4994679;28;20042;-46
2021/01/24 23:54:03;;;;;;;2.70;2.17;;;19.90;35.80;;;;;;4994902;28;20035;-48
2021/01/24 23:56:29;;;;;;;2.63;2.38;;;19.90;35.80;;;;;;4994998;28;20471;-47
2021/01/24 23:58:55;;;;;;;2.70;2.22;;;19.90;35.80;;;;;;4998330;28;20038;-45
